Startpagina
METAR-TAF:

METAR-TAF

Vliegvelden :

Internationale luchthaven van Nouakchott

Nouakchott, Mauritanië

breedte: 18-18-36N, lengte: 015-58-11W, hoogte: 3 m

Actueel weer

Dit bericht is 32 minuten geleden gemaakt, om 11:30 UTC
Wind 8 kt uit het oostnoordoosten, variërend tussen het noordnoordoosten en het oosten
Temperatuur 28°C
Vochtigheid 20%
Druk 1014 hPa
Zicht 10 km of meer
geen wolken onder 1500 m en geen cumulonimbus

METAR: GQNO 221130Z 06008KT 030V090 CAVOK 28/03 Q1014 NOSIG

Tijdstip: 12:02 (12:02 UTC)

Verwachting

Dit bericht is 32 minuten geleden gemaakt, om 11:30 UTC
Verwachting geldig van 22 om 12 UTC tot 23 om 18 UTC
Wind 12 kt uit het noordoosten
Zicht 10 km of meer
geen wolken onder 1500 m en geen cumulonimbus
Wijzigt naar
van 22 om 14 UTC tot 22 om 17 UTC
Wind 12 kt uit het noorden
Tijdelijke
van 23 om 10 UTC tot 23 om 15 UTC
Wind 10 kt uit het oostnoordoosten

TAF: GQNO 221130Z 2212/2318 05012KT CAVOK BECMG 2214/2217 35012KT TEMPO 2310/2315 06010KT

Waarnemingen en weersverwachtingen van meer dan 4000 vliegvelden (METAR en TAF).

De beschikbare stations zijn de gele en rode punten op de kaart.

Ga met uw muis naar het station om de naam te zien.

Klik dan om waarnemingen en weersverwachtingen te zien.

kaart wijzigen: klik op de groene knoppen met een zwart kruis om in te zoomen, op de groene knop met een streepje om uit te zoomen of op de groene pijlen voor aangrenzende kaarten.


METAR-TAF: